createdAt,value
2019-05-02T00:00:13.843Z,35.63
2019-05-02T00:02:45.118Z,40.13
2019-05-02T00:05:19.329Z,36.27
2019-05-02T00:07:53.890Z,40.00
2019-05-02T00:10:26.067Z,38.27
2019-05-02T00:12:57.977Z,35.43
2019-05-02T00:15:33.187Z,37.47
2019-05-02T00:18:04.593Z,36.63
2019-05-02T00:20:35.841Z,35.50
2019-05-02T00:23:09.243Z,34.27
2019-05-02T00:25:47.246Z,36.70
2019-05-02T00:28:19.809Z,34.97
2019-05-02T00:30:50.970Z,35.97
2019-05-02T00:33:22.483Z,37.27
2019-05-02T00:35:53.959Z,35.70
2019-05-02T00:38:27.933Z,36.63
2019-05-02T00:41:02.170Z,34.13
2019-05-02T00:43:34.581Z,39.60
2019-05-02T00:46:06.445Z,42.07
2019-05-02T00:48:44.189Z,38.03
2019-05-02T00:51:15.655Z,36.53
2019-05-02T00:53:48.434Z,38.47
2019-05-02T00:56:21.892Z,36.20
2019-05-02T00:58:56.617Z,33.27
2019-05-02T01:01:48.437Z,32.30
2019-05-02T01:04:28.831Z,33.80
2019-05-02T01:07:00.454Z,34.97
2019-05-02T01:09:32.540Z,37.93
2019-05-02T01:12:08.411Z,37.40
2019-05-02T01:14:37.786Z,38.33
2019-05-02T01:17:09.422Z,34.23
2019-05-02T01:19:42.429Z,33.70
2019-05-02T01:22:16.008Z,35.10
2019-05-02T01:24:46.672Z,34.43
2019-05-02T01:27:53.022Z,37.17
2019-05-02T01:30:43.894Z,33.00
2019-05-02T01:33:52.421Z,35.10
2019-05-02T01:36:30.233Z,30.60
2019-05-02T01:39:02.845Z,31.93
2019-05-02T01:41:36.002Z,32.07
2019-05-02T01:44:09.719Z,29.20
2019-05-02T01:46:41.867Z,38.70
2019-05-02T01:49:16.835Z,32.40
2019-05-02T01:51:51.546Z,36.27
2019-05-02T01:54:22.779Z,36.33
2019-05-02T01:56:54.339Z,39.23
2019-05-02T01:59:29.081Z,36.10
2019-05-02T02:02:00.753Z,34.60
2019-05-02T02:04:31.940Z,37.50
2019-05-02T02:07:03.667Z,36.70
2019-05-02T02:09:38.798Z,35.03
2019-05-02T02:12:11.463Z,35.20
2019-05-02T02:14:48.039Z,34.50
2019-05-02T02:17:17.417Z,34.07
2019-05-02T02:19:53.392Z,36.07
2019-05-02T02:22:42.351Z,33.40
2019-05-02T02:25:52.071Z,39.20
2019-05-02T02:28:23.124Z,43.33
2019-05-02T02:30:57.842Z,36.97
2019-05-02T02:33:27.675Z,34.50
2019-05-02T02:36:00.138Z,34.80
2019-05-02T02:38:33.789Z,41.33
2019-05-02T02:41:12.513Z,33.40
2019-05-02T02:43:41.941Z,32.10
2019-05-02T02:46:37.709Z,32.27
2019-05-02T02:49:06.365Z,32.80
2019-05-02T02:51:37.902Z,29.40
2019-05-02T02:54:08.978Z,30.20
2019-05-02T02:56:40.956Z,37.20
2019-05-02T02:59:19.329Z,36.40
2019-05-02T03:01:47.459Z,36.03
2019-05-02T03:04:20.170Z,36.57
2019-05-02T03:06:51.947Z,36.43
2019-05-02T03:09:26.494Z,37.60
2019-05-02T03:12:13.759Z,36.43
2019-05-02T03:14:50.662Z,33.03
2019-05-02T03:17:49.295Z,33.57
2019-05-02T03:20:20.523Z,38.87
2019-05-02T03:22:51.952Z,37.73
2019-05-02T03:25:27.027Z,38.00
2019-05-02T03:27:57.120Z,36.10
2019-05-02T03:30:36.036Z,36.10
2019-05-02T03:33:10.279Z,35.87
2019-05-02T03:35:42.784Z,41.47
2019-05-02T03:38:08.246Z,37.33
2019-05-02T03:40:41.369Z,35.77
2019-05-02T03:43:18.935Z,44.30
2019-05-02T03:45:46.474Z,42.57
2019-05-02T03:48:25.856Z,40.03
2019-05-02T03:50:51.456Z,38.20
2019-05-02T03:53:25.376Z,37.20
2019-05-02T03:55:56.639Z,38.20
2019-05-02T03:58:28.798Z,33.77
2019-05-02T04:01:03.357Z,35.30
2019-05-02T04:03:40.881Z,38.07
2019-05-02T04:06:14.072Z,32.30
2019-05-02T04:08:43.571Z,33.20
2019-05-02T04:11:26.552Z,38.70
2019-05-02T04:13:59.712Z,40.23
2019-05-02T04:16:31.910Z,35.77
2019-05-02T04:19:05.446Z,37.00
2019-05-02T04:21:41.496Z,38.80
2019-05-02T04:24:15.880Z,37.13
2019-05-02T04:26:56.080Z,36.97
2019-05-02T04:29:24.437Z,35.23
2019-05-02T04:31:54.885Z,38.67
2019-05-02T04:34:26.006Z,34.23
2019-05-02T04:37:01.272Z,35.17
2019-05-02T04:39:31.170Z,37.20
2019-05-02T04:42:12.929Z,35.07
2019-05-02T04:45:26.346Z,35.00
2019-05-02T04:47:58.991Z,37.83
2019-05-02T04:50:29.454Z,40.23
2019-05-02T04:53:00.276Z,34.03
2019-05-02T04:55:33.461Z,36.80
2019-05-02T04:58:08.154Z,35.00
2019-05-02T05:00:44.970Z,41.33
2019-05-02T05:03:15.478Z,37.50
2019-05-02T05:05:48.221Z,41.33
2019-05-02T05:08:26.187Z,34.93
2019-05-02T05:10:53.718Z,37.33
2019-05-02T05:13:26.459Z,42.10
2019-05-02T05:16:02.896Z,37.27
2019-05-02T05:18:33.616Z,41.03
2019-05-02T05:21:04.667Z,41.37
2019-05-02T05:23:59.510Z,36.33
2019-05-02T05:26:28.110Z,40.53
2019-05-02T05:29:00.391Z,40.37
2019-05-02T05:31:31.537Z,39.07
2019-05-02T05:34:02.993Z,41.37
2019-05-02T05:36:37.466Z,36.50
2019-05-02T05:39:11.655Z,41.73
2019-05-02T05:41:42.650Z,39.87
2019-05-02T05:44:18.236Z,37.83
2019-05-02T05:46:49.626Z,44.63
2019-05-02T05:49:21.887Z,35.80
2019-05-02T05:51:54.313Z,48.90
2019-05-02T05:54:28.303Z,41.33
2019-05-02T05:57:01.819Z,44.90
2019-05-02T05:59:33.330Z,54.40
2019-05-02T06:02:05.615Z,46.93
2019-05-02T06:04:38.873Z,41.50
2019-05-02T06:07:10.112Z,41.33
2019-05-02T06:09:41.569Z,44.20
2019-05-02T06:12:12.713Z,48.97
2019-05-02T06:14:46.424Z,42.30
2019-05-02T06:17:23.016Z,42.97
2019-05-02T06:19:53.595Z,48.23
2019-05-02T06:22:25.688Z,45.80
2019-05-02T06:24:58.392Z,42.67
2019-05-02T06:27:30.495Z,44.03
2019-05-02T06:30:01.798Z,44.60
2019-05-02T06:32:33.658Z,47.03
2019-05-02T06:35:04.994Z,42.30
2019-05-02T06:37:40.473Z,46.70
2019-05-02T06:40:13.044Z,48.00
2019-05-02T06:42:46.099Z,45.77
2019-05-02T06:45:19.062Z,54.47
2019-05-02T06:47:50.776Z,49.20
2019-05-02T06:50:24.969Z,44.50
2019-05-02T06:52:58.083Z,45.13
2019-05-02T06:55:36.279Z,43.53
2019-05-02T06:58:08.229Z,40.90
2019-05-02T07:00:55.902Z,48.93
2019-05-02T07:03:12.603Z,41.53
2019-05-02T07:05:43.947Z,44.70
2019-05-02T07:08:15.139Z,39.63
2019-05-02T07:10:48.094Z,42.60
2019-05-02T07:13:19.142Z,38.27
2019-05-02T07:16:00.655Z,41.93
2019-05-02T07:18:35.761Z,42.37
2019-05-02T07:21:07.450Z,37.93
2019-05-02T07:23:39.698Z,39.60
2019-05-02T07:26:15.530Z,41.53
2019-05-02T07:28:47.187Z,43.40
2019-05-02T07:31:18.257Z,41.40
2019-05-02T07:33:51.240Z,44.53
2019-05-02T07:36:22.821Z,47.53
2019-05-02T07:38:57.587Z,44.67
2019-05-02T07:41:28.952Z,45.53
2019-05-02T07:44:00.640Z,44.10
2019-05-02T07:46:32.196Z,46.03
2019-05-02T07:49:03.340Z,42.77
2019-05-02T07:51:34.454Z,46.53
2019-05-02T07:54:07.479Z,43.67
2019-05-02T07:56:38.545Z,45.37
2019-05-02T07:59:11.206Z,43.80
2019-05-02T08:01:44.832Z,46.47
2019-05-02T08:04:15.446Z,39.43
2019-05-02T08:06:46.690Z,53.23
2019-05-02T08:09:17.821Z,44.93
2019-05-02T08:11:49.242Z,45.77
2019-05-02T08:14:22.319Z,40.03
2019-05-02T08:17:05.516Z,41.83
2019-05-02T08:19:28.986Z,39.90
2019-05-02T08:22:04.735Z,45.70
2019-05-02T08:24:37.914Z,37.30
2019-05-02T08:27:34.661Z,44.77
2019-05-02T08:30:09.351Z,41.47
2019-05-02T08:32:40.804Z,49.30
2019-05-02T08:35:12.575Z,50.90
2019-05-02T08:37:43.790Z,44.97
2019-05-02T08:40:15.145Z,47.20
2019-05-02T08:42:47.704Z,47.57
2019-05-02T08:45:20.612Z,53.70
2019-05-02T08:47:51.781Z,45.17
2019-05-02T08:50:27.187Z,45.80
2019-05-02T08:52:56.668Z,47.10
2019-05-02T08:55:30.042Z,46.00
2019-05-02T08:58:06.095Z,53.80
2019-05-02T09:00:37.621Z,44.60
2019-05-02T09:03:07.889Z,47.27
2019-05-02T09:05:45.341Z,49.23
2019-05-02T09:08:16.718Z,46.27
2019-05-02T09:10:47.759Z,47.73
2019-05-02T09:13:26.485Z,53.07
2019-05-02T09:15:54.158Z,50.43
2019-05-02T09:18:35.017Z,44.83
2019-05-02T09:21:02.067Z,46.37
2019-05-02T09:23:37.198Z,46.77
2019-05-02T09:26:09.058Z,48.57
2019-05-02T09:28:42.074Z,43.17
2019-05-02T09:31:15.208Z,49.20
2019-05-02T09:33:48.187Z,45.93
2019-05-02T09:36:19.842Z,48.73
2019-05-02T09:38:55.904Z,46.57
2019-05-02T09:41:27.033Z,45.83
2019-05-02T09:43:56.905Z,45.07
2019-05-02T09:46:29.855Z,48.63
2019-05-02T09:49:04.319Z,45.20
2019-05-02T09:51:35.525Z,49.60
2019-05-02T09:54:06.990Z,47.63
2019-05-02T09:56:39.595Z,47.60
2019-05-02T09:59:26.836Z,49.10
2019-05-02T10:01:48.204Z,45.23
2019-05-02T10:04:19.448Z,45.10
2019-05-02T10:06:52.542Z,50.07
2019-05-02T10:09:27.081Z,48.30
2019-05-02T10:11:58.021Z,49.30
2019-05-02T10:14:30.297Z,45.30
2019-05-02T10:17:06.998Z,43.57
2019-05-02T10:19:35.349Z,44.20
2019-05-02T10:22:06.994Z,45.30
2019-05-02T10:24:38.463Z,49.20
2019-05-02T10:27:09.811Z,47.03
2019-05-02T10:29:42.484Z,41.10
2019-05-02T10:32:16.644Z,46.03
2019-05-02T10:34:53.101Z,47.70
2019-05-02T10:37:22.330Z,45.57
2019-05-02T10:39:55.818Z,43.67
2019-05-02T10:42:27.534Z,47.83
2019-05-02T10:45:24.061Z,46.23
2019-05-02T10:47:55.216Z,42.47
2019-05-02T10:50:36.084Z,48.80
2019-05-02T10:53:14.313Z,44.83
2019-05-02T10:55:42.092Z,41.50
2019-05-02T10:58:13.778Z,40.97
2019-05-02T11:00:45.576Z,42.10
2019-05-02T11:03:38.137Z,43.50
2019-05-02T11:06:10.182Z,44.93
2019-05-02T11:08:45.712Z,45.83
2019-05-02T11:11:14.020Z,40.80
2019-05-02T11:14:07.076Z,45.23
2019-05-02T11:16:59.074Z,46.50
2019-05-02T11:19:56.641Z,39.20
2019-05-02T11:22:27.749Z,42.63
2019-05-02T11:24:59.260Z,43.20
2019-05-02T11:27:32.860Z,42.47
2019-05-02T11:30:06.135Z,41.90
2019-05-02T11:32:39.122Z,42.73
2019-05-02T11:35:12.318Z,42.83
2019-05-02T11:37:43.465Z,42.60
2019-05-02T11:40:15.421Z,49.50
2019-05-02T11:42:47.956Z,40.10
2019-05-02T11:45:19.105Z,47.63
2019-05-02T11:47:50.305Z,47.40
2019-05-02T11:50:26.614Z,47.07
2019-05-02T11:52:57.745Z,41.10
2019-05-02T11:55:29.187Z,43.30
2019-05-02T11:58:07.895Z,44.47
2019-05-02T12:00:34.945Z,44.67
2019-05-02T12:03:28.121Z,46.53
2019-05-02T12:06:01.994Z,49.30
2019-05-02T12:08:33.662Z,47.07
2019-05-02T12:11:08.432Z,43.50
2019-05-02T12:13:38.973Z,44.70
2019-05-02T12:16:12.600Z,45.73
2019-05-02T12:18:44.086Z,48.90
2019-05-02T12:21:15.763Z,50.37
2019-05-02T12:23:46.971Z,44.93
2019-05-02T12:26:18.162Z,39.83
2019-05-02T12:28:52.476Z,39.40
2019-05-02T12:31:32.449Z,40.30
2019-05-02T12:34:07.547Z,46.70
2019-05-02T12:36:42.735Z,43.30
2019-05-02T12:39:15.708Z,42.13
2019-05-02T12:41:47.191Z,39.43
2019-05-02T12:44:18.753Z,40.50
2019-05-02T12:46:51.918Z,39.73
2019-05-02T12:49:27.722Z,40.00
2019-05-02T12:51:55.988Z,43.60
2019-05-02T12:54:27.164Z,37.90
2019-05-02T12:56:58.925Z,36.47
2019-05-02T12:59:32.092Z,43.47
2019-05-02T13:02:05.729Z,35.53
2019-05-02T13:04:36.806Z,40.30
2019-05-02T13:07:10.192Z,37.90
2019-05-02T13:09:42.040Z,41.30
2019-05-02T13:12:17.785Z,36.27
2019-05-02T13:14:49.136Z,39.50
2019-05-02T13:17:22.522Z,39.20
2019-05-02T13:19:57.042Z,38.00
2019-05-02T13:22:52.635Z,38.73
2019-05-02T13:25:27.245Z,35.23
2019-05-02T13:28:01.948Z,40.73
2019-05-02T13:30:46.475Z,45.70
2019-05-02T13:33:27.232Z,39.00
2019-05-02T13:35:59.712Z,43.00
2019-05-02T13:38:32.904Z,48.07
2019-05-02T13:41:07.120Z,50.87
2019-05-02T13:43:45.436Z,49.03
2019-05-02T13:46:22.186Z,46.37
2019-05-02T13:48:54.894Z,42.97
2019-05-02T13:51:26.348Z,42.07
2019-05-02T13:54:02.333Z,43.87
2019-05-02T13:56:52.823Z,41.10
2019-05-02T13:59:28.045Z,43.23
2019-05-02T14:02:02.772Z,46.20
2019-05-02T14:04:35.751Z,47.60
2019-05-02T14:07:07.626Z,40.50
2019-05-02T14:09:57.962Z,47.10
2019-05-02T14:12:58.419Z,48.03
2019-05-02T14:15:35.090Z,46.20
2019-05-02T14:18:06.256Z,44.23
2019-05-02T14:20:38.450Z,43.37
2019-05-02T14:23:12.054Z,46.03
2019-05-02T14:25:43.058Z,45.50
2019-05-02T14:28:14.127Z,47.77
2019-05-02T14:30:46.350Z,52.80
2019-05-02T14:33:23.262Z,48.07
2019-05-02T14:35:55.480Z,52.93
2019-05-02T14:38:26.671Z,57.50
2019-05-02T14:41:12.427Z,57.50
2019-05-02T14:43:53.091Z,51.33
2019-05-02T14:46:33.227Z,48.10
2019-05-02T14:49:02.531Z,50.47
2019-05-02T14:51:36.456Z,52.90
2019-05-02T14:54:08.339Z,51.73
2019-05-02T14:56:52.135Z,47.90
2019-05-02T14:59:24.846Z,44.03
2019-05-02T15:02:05.670Z,49.93
2019-05-02T15:04:38.085Z,50.27
2019-05-02T15:07:12.939Z,52.73
2019-05-02T15:09:44.603Z,47.43
2019-05-02T15:12:18.993Z,49.20
2019-05-02T15:14:57.366Z,48.10
2019-05-02T15:17:28.100Z,66.03
2019-05-02T15:19:59.309Z,55.43
2019-05-02T15:22:37.338Z,76.47
2019-05-02T15:25:08.023Z,57.60
2019-05-02T15:27:42.511Z,57.27
2019-05-02T15:30:12.881Z,55.40
2019-05-02T15:32:58.248Z,60.10
2019-05-02T15:35:42.453Z,61.53
2019-05-02T15:38:20.863Z,56.60
2019-05-02T15:40:50.681Z,66.53
2019-05-02T15:43:22.320Z,67.83
2019-05-02T15:45:54.869Z,58.70
2019-05-02T15:48:27.747Z,61.40
2019-05-02T15:51:00.113Z,63.67
2019-05-02T15:53:39.146Z,56.80
2019-05-02T15:56:18.714Z,55.30
2019-05-02T15:58:44.611Z,58.97
2019-05-02T16:01:26.757Z,50.00
2019-05-02T16:04:01.619Z,57.33
2019-05-02T16:06:34.013Z,48.07
2019-05-02T16:09:07.593Z,56.67
2019-05-02T16:11:39.931Z,52.97
2019-05-02T16:14:12.812Z,49.40
2019-05-02T16:16:45.406Z,41.57
2019-05-02T16:19:27.149Z,45.23
2019-05-02T16:21:59.500Z,42.43
2019-05-02T16:24:32.098Z,45.17
2019-05-02T16:27:04.421Z,46.40
2019-05-02T16:29:35.560Z,43.03
2019-05-02T16:32:37.851Z,42.53
2019-05-02T16:35:15.283Z,48.40
2019-05-02T16:37:46.736Z,46.20
2019-05-02T16:40:22.134Z,39.57
2019-05-02T16:42:52.769Z,40.60
2019-05-02T16:45:25.337Z,43.87
2019-05-02T16:48:00.142Z,42.47
2019-05-02T16:50:36.538Z,39.63
2019-05-02T16:53:07.253Z,42.07
2019-05-02T16:55:43.437Z,38.40
2019-05-02T16:58:14.693Z,33.70
2019-05-02T17:00:47.685Z,39.57
2019-05-02T17:03:22.711Z,35.47
2019-05-02T17:05:54.405Z,36.30
2019-05-02T17:08:39.599Z,37.70
2019-05-02T17:11:16.110Z,40.43
2019-05-02T17:13:48.580Z,34.93
2019-05-02T17:16:22.139Z,39.93
2019-05-02T17:18:56.515Z,34.87
2019-05-02T17:21:33.677Z,41.50
2019-05-02T17:24:02.604Z,39.40
2019-05-02T17:26:34.569Z,40.00
2019-05-02T17:29:11.937Z,41.40
2019-05-02T17:31:44.111Z,42.70
2019-05-02T17:34:15.762Z,48.10
2019-05-02T17:36:51.859Z,42.67
2019-05-02T17:39:25.436Z,45.80
2019-05-02T17:42:00.243Z,50.37
2019-05-02T17:44:30.882Z,47.20
2019-05-02T17:47:04.238Z,47.90
2019-05-02T17:49:43.411Z,49.17
2019-05-02T17:52:26.838Z,55.20
2019-05-02T17:54:57.490Z,51.60
2019-05-02T17:57:33.467Z,50.83
2019-05-02T18:00:12.224Z,52.07
2019-05-02T18:02:47.047Z,50.73
2019-05-02T18:05:18.608Z,49.33
2019-05-02T18:07:52.652Z,54.07
2019-05-02T18:10:25.576Z,52.50
2019-05-02T18:13:02.521Z,47.50
2019-05-02T18:15:42.634Z,48.63
2019-05-02T18:18:16.401Z,44.27
2019-05-02T18:20:47.979Z,52.53
2019-05-02T18:23:27.721Z,49.93
2019-05-02T18:26:02.778Z,45.67
2019-05-02T18:28:45.544Z,47.03
2019-05-02T18:31:06.971Z,47.40
2019-05-02T18:33:41.009Z,46.87
2019-05-02T18:36:17.361Z,46.67
2019-05-02T18:38:52.445Z,42.50
2019-05-02T18:41:22.402Z,44.03
2019-05-02T18:43:55.246Z,48.43
2019-05-02T18:46:28.605Z,45.20
2019-05-02T18:49:02.762Z,47.43
2019-05-02T18:51:36.873Z,47.57
2019-05-02T18:54:12.008Z,36.03
2019-05-02T18:56:50.101Z,16.20
2019-05-02T18:59:19.806Z,11.70
2019-05-02T19:01:52.680Z,11.43
2019-05-02T19:04:29.831Z,11.70
2019-05-02T19:07:00.531Z,12.37
2019-05-02T19:09:34.806Z,11.80
2019-05-02T19:12:21.419Z,8.80
2019-05-02T19:14:49.268Z,14.93
2019-05-02T19:17:25.310Z,11.60
2019-05-02T19:20:01.402Z,12.27
2019-05-02T19:22:47.944Z,14.60
2019-05-02T19:25:12.086Z,15.27
2019-05-02T19:27:59.425Z,10.00
2019-05-02T19:30:36.096Z,13.90
2019-05-02T19:33:12.117Z,10.73
2019-05-02T19:35:50.086Z,14.43
2019-05-02T19:38:26.395Z,11.63
2019-05-02T19:41:05.499Z,9.60
2019-05-02T19:43:40.266Z,13.77
2019-05-02T19:46:12.863Z,12.70
2019-05-02T19:48:47.136Z,13.70
2019-05-02T19:51:22.584Z,14.67
2019-05-02T19:54:05.473Z,13.17
2019-05-02T19:56:45.438Z,10.53
2019-05-02T19:59:16.739Z,11.43
2019-05-02T20:01:52.299Z,12.00
2019-05-02T20:04:29.582Z,12.70
2019-05-02T20:07:04.434Z,10.57
2019-05-02T20:09:43.584Z,11.53
2019-05-02T20:12:18.175Z,9.53
2019-05-02T20:14:52.660Z,10.93
2019-05-02T20:17:27.932Z,11.47
2019-05-02T20:20:07.093Z,10.70
2019-05-02T20:22:41.710Z,10.83
2019-05-02T20:25:18.008Z,17.50
2019-05-02T20:27:53.831Z,12.83
2019-05-02T20:30:32.716Z,10.33
2019-05-02T20:33:07.120Z,10.57
2019-05-02T20:35:43.289Z,10.47
2019-05-02T20:38:21.733Z,6.87
2019-05-02T20:41:00.431Z,6.17
2019-05-02T20:43:35.920Z,6.77
2019-05-02T20:46:12.143Z,8.63
2019-05-02T20:48:48.509Z,6.10
2019-05-02T20:51:22.864Z,3.03
2019-05-02T20:53:56.963Z,2.70
2019-05-02T20:56:32.091Z,2.87
2019-05-02T20:59:07.716Z,2.80
2019-05-02T21:01:43.058Z,3.20
2019-05-02T21:04:17.090Z,9.40
2019-05-02T21:07:09.718Z,5.27
2019-05-02T21:10:03.857Z,3.83
2019-05-02T21:12:38.189Z,5.60
2019-05-02T21:15:18.216Z,4.87
2019-05-02T21:17:52.155Z,6.23
2019-05-02T21:20:26.283Z,6.00
2019-05-02T21:23:01.975Z,6.77
2019-05-02T21:25:36.014Z,7.70
2019-05-02T21:28:12.001Z,2.33
2019-05-02T21:30:49.332Z,7.67
2019-05-02T21:33:36.326Z,8.17
2019-05-02T21:36:12.040Z,8.43
2019-05-02T21:38:46.298Z,7.47
2019-05-02T21:41:22.240Z,6.43
2019-05-02T21:43:58.590Z,3.50
2019-05-02T21:46:32.403Z,8.90
2019-05-02T21:49:08.975Z,4.90
2019-05-02T21:51:51.794Z,5.97
2019-05-02T21:54:33.724Z,5.60
2019-05-02T21:57:12.490Z,10.63
2019-05-02T21:59:46.691Z,14.07
2019-05-02T22:02:22.460Z,7.23
2019-05-02T22:04:58.193Z,7.53
2019-05-02T22:07:32.378Z,10.60
2019-05-02T22:10:08.481Z,9.80
2019-05-02T22:12:42.326Z,8.10
2019-05-02T22:15:18.366Z,6.03
2019-05-02T22:17:52.312Z,8.13
2019-05-02T22:20:28.030Z,5.90
2019-05-02T22:23:02.404Z,4.40
2019-05-02T22:25:36.157Z,6.63
2019-05-02T22:28:12.578Z,7.77
2019-05-02T22:30:47.765Z,10.93
2019-05-02T22:33:22.181Z,5.40
2019-05-02T22:35:56.668Z,6.90
2019-05-02T22:39:05.426Z,6.23
2019-05-02T22:41:39.346Z,8.17
2019-05-02T22:44:14.192Z,5.73
2019-05-02T22:46:47.757Z,9.50
2019-05-02T22:49:23.638Z,10.10
2019-05-02T22:51:57.318Z,11.13
2019-05-02T22:54:34.078Z,7.83
2019-05-02T22:57:08.929Z,13.37
2019-05-02T22:59:42.547Z,10.90
2019-05-02T23:02:17.995Z,11.50
2019-05-02T23:04:52.692Z,12.30
2019-05-02T23:07:27.845Z,13.80
2019-05-02T23:10:02.168Z,16.17
2019-05-02T23:12:37.239Z,15.60
2019-05-02T23:15:12.561Z,10.53
2019-05-02T23:17:54.060Z,12.47
2019-05-02T23:20:27.733Z,13.30
2019-05-02T23:23:01.908Z,21.33
2019-05-02T23:26:05.798Z,16.33
2019-05-02T23:28:42.308Z,6.37
2019-05-02T23:31:16.325Z,13.27
2019-05-02T23:33:59.128Z,15.30
2019-05-02T23:36:33.781Z,5.47
2019-05-02T23:39:12.470Z,15.77
2019-05-02T23:41:48.061Z,9.83
2019-05-02T23:44:22.840Z,25.07
2019-05-02T23:46:56.771Z,10.03
2019-05-02T23:49:32.352Z,12.50
2019-05-02T23:52:07.254Z,6.93
2019-05-02T23:54:49.998Z,9.50
2019-05-02T23:57:19.067Z,9.10
2019-05-02T23:59:52.871Z,12.23
